Burnet's Hourly Summary for Tuesday, May 15, 2018
Hour Temp
(f)
RH
(%)
Solar Rad.
(MJ/m2)
Rainfall
(in)
Wind
(mph)
5/15/2018 12:00 AM 73 95 0 0.02 0.57
5/15/2018 1:00 AM 71 95 0 0 0.7
5/15/2018 2:00 AM 71 94 0 0 1.88
5/15/2018 3:00 AM 71 89 0 0 3.32
5/15/2018 4:00 AM 70 92 0 0 1.95
5/15/2018 5:00 AM 69 93 0 0 1.79
5/15/2018 6:00 AM 68 95 0 0 1
5/15/2018 7:00 AM 69 95 0.01 0 0.84
5/15/2018 8:00 AM 72 90 0.35 0 1.09
5/15/2018 9:00 AM 74 85 0.99 0 3.53
5/15/2018 10:00 AM 77 76 1.68 0 4.48
5/15/2018 11:00 AM 80 68 2.29 0 4.6
5/15/2018 12:00 PM 83 62 2.78 0 4.13
5/15/2018 1:00 PM 85 57 3.12 0 4
5/15/2018 2:00 PM 86 53 3.13 0 4.47
5/15/2018 3:00 PM 87 49 1.37 0 4.51
5/15/2018 4:00 PM 87 47 0.82 0 5.17
5/15/2018 5:00 PM 88 46 1.54 0 5.36
5/15/2018 6:00 PM 88 67 1.04 0.85 6.09
5/15/2018 7:00 PM 69 93 0.02 0.05 11.17
5/15/2018 8:00 PM 70 93 0.01 0 4.38
5/15/2018 9:00 PM 70 95 0 0 2.79
5/15/2018 10:00 PM 70 95 0 0 1.5
5/15/2018 11:00 PM 69 91 0 0.01 5.86
Data Summary 75 79 19.15 0.93 3.55